Mulberry, Kansas
Current Conditions -  °F | °C
As of 12:15 AM on Wednesday 28 Jan 2015 (Local Time) from KPTS Reporting Station
Clear Clear  
Wind Chill: 44°   Ceiling: Unl
Heat Index: 47°   Visibility: 10mi
Dew Point: 32°   Wind: 7mph
Humidity: 56%   Direction: 140°SE
Pressure: 30.04"   Gusts: NA
Location:  37.56°N, 94.62°W
Report Text: KPTS 280615Z AUTO 14006KT 10SM CLR 08/00 A3004 RMK AO2 T00840001
Loading
Personal Weather Stations






























Interactive Weather Map New forecast layout! Learn more

10-Day Weather Forecast

Advertisements
Track Severe Weather on mobile